sensor_id;sensor_type;location;lat;lon;timestamp;P1;durP1;ratioP1;P2;durP2;ratioP2
42590;SDS011;28218;53.342;-6.216;2023-06-04T00:00:49;9.00;;;4.78;;
42590;SDS011;28218;53.342;-6.216;2023-06-04T00:03:18;15.02;;;6.15;;
42590;SDS011;28218;53.342;-6.216;2023-06-04T00:05:46;10.48;;;5.82;;
42590;SDS011;28218;53.342;-6.216;2023-06-04T00:08:14;10.52;;;6.22;;
42590;SDS011;28218;53.342;-6.216;2023-06-04T00:10:43;14.55;;;5.65;;
42590;SDS011;28218;53.342;-6.216;2023-06-04T00:13:12;11.75;;;5.75;;
42590;SDS011;28218;53.342;-6.216;2023-06-04T00:15:40;12.20;;;6.93;;
42590;SDS011;28218;53.342;-6.216;2023-06-04T00:18:09;13.57;;;5.60;;
42590;SDS011;28218;53.342;-6.216;2023-06-04T00:20:40;10.52;;;5.07;;
42590;SDS011;28218;53.342;-6.216;2023-06-04T00:23:08;8.27;;;4.85;;
42590;SDS011;28218;53.342;-6.216;2023-06-04T00:25:36;8.60;;;5.15;;
42590;SDS011;28218;53.342;-6.216;2023-06-04T00:28:05;11.65;;;5.90;;
42590;SDS011;28218;53.342;-6.216;2023-06-04T00:30:34;14.68;;;5.10;;
42590;SDS011;28218;53.342;-6.216;2023-06-04T00:33:03;15.98;;;5.47;;
42590;SDS011;28218;53.342;-6.216;2023-06-04T00:35:33;8.23;;;5.45;;
42590;SDS011;28218;53.342;-6.216;2023-06-04T00:38:01;10.38;;;5.57;;
42590;SDS011;28218;53.342;-6.216;2023-06-04T00:40:29;8.82;;;4.63;;
42590;SDS011;28218;53.342;-6.216;2023-06-04T00:42:58;10.68;;;5.28;;
42590;SDS011;28218;53.342;-6.216;2023-06-04T00:45:26;11.23;;;5.43;;
42590;SDS011;28218;53.342;-6.216;2023-06-04T00:47:57;6.63;;;4.82;;
42590;SDS011;28218;53.342;-6.216;2023-06-04T00:50:27;10.68;;;4.82;;
42590;SDS011;28218;53.342;-6.216;2023-06-04T00:52:56;12.82;;;4.85;;
42590;SDS011;28218;53.342;-6.216;2023-06-04T00:55:24;12.10;;;4.47;;
42590;SDS011;28218;53.342;-6.216;2023-06-04T00:57:53;8.63;;;4.43;;
42590;SDS011;28218;53.342;-6.216;2023-06-04T01:00:21;8.55;;;4.15;;
42590;SDS011;28218;53.342;-6.216;2023-06-04T01:02:49;9.85;;;4.53;;
42590;SDS011;28218;53.342;-6.216;2023-06-04T01:05:26;10.35;;;4.18;;
42590;SDS011;28218;53.342;-6.216;2023-06-04T01:08:03;8.07;;;4.13;;
42590;SDS011;28218;53.342;-6.216;2023-06-04T01:10:37;10.60;;;4.82;;
42590;SDS011;28218;53.342;-6.216;2023-06-04T01:13:05;6.18;;;3.78;;
42590;SDS011;28218;53.342;-6.216;2023-06-04T01:15:36;12.70;;;5.35;;
42590;SDS011;28218;53.342;-6.216;2023-06-04T01:18:05;11.10;;;4.53;;
42590;SDS011;28218;53.342;-6.216;2023-06-04T01:20:34;11.07;;;4.03;;
42590;SDS011;28218;53.342;-6.216;2023-06-04T01:23:13;9.50;;;4.47;;
42590;SDS011;28218;53.342;-6.216;2023-06-04T01:25:47;12.88;;;4.50;;
42590;SDS011;28218;53.342;-6.216;2023-06-04T01:28:17;9.60;;;4.15;;
42590;SDS011;28218;53.342;-6.216;2023-06-04T01:30:47;10.73;;;3.90;;
42590;SDS011;28218;53.342;-6.216;2023-06-04T01:33:18;9.77;;;4.78;;
42590;SDS011;28218;53.342;-6.216;2023-06-04T01:35:47;11.55;;;5.28;;
42590;SDS011;28218;53.342;-6.216;2023-06-04T01:38:17;8.68;;;4.45;;
42590;SDS011;28218;53.342;-6.216;2023-06-04T01:40:46;7.75;;;4.50;;
42590;SDS011;28218;53.342;-6.216;2023-06-04T01:43:14;8.88;;;4.72;;
42590;SDS011;28218;53.342;-6.216;2023-06-04T01:45:42;8.98;;;4.65;;
42590;SDS011;28218;53.342;-6.216;2023-06-04T01:48:11;9.65;;;4.10;;
42590;SDS011;28218;53.342;-6.216;2023-06-04T01:50:39;5.40;;;3.95;;
42590;SDS011;28218;53.342;-6.216;2023-06-04T01:53:07;8.25;;;4.00;;
42590;SDS011;28218;53.342;-6.216;2023-06-04T01:55:37;13.48;;;4.30;;
42590;SDS011;28218;53.342;-6.216;2023-06-04T01:58:05;9.90;;;4.60;;
42590;SDS011;28218;53.342;-6.216;2023-06-04T02:00:36;12.40;;;5.22;;
42590;SDS011;28218;53.342;-6.216;2023-06-04T02:03:04;10.68;;;4.30;;
42590;SDS011;28218;53.342;-6.216;2023-06-04T02:05:32;8.32;;;5.18;;
42590;SDS011;28218;53.342;-6.216;2023-06-04T02:08:01;6.38;;;4.78;;
42590;SDS011;28218;53.342;-6.216;2023-06-04T02:10:31;11.95;;;5.50;;
42590;SDS011;28218;53.342;-6.216;2023-06-04T02:13:01;8.40;;;4.78;;
42590;SDS011;28218;53.342;-6.216;2023-06-04T02:15:31;11.00;;;5.32;;
42590;SDS011;28218;53.342;-6.216;2023-06-04T02:18:10;12.23;;;5.75;;
42590;SDS011;28218;53.342;-6.216;2023-06-04T02:20:43;12.77;;;5.97;;
42590;SDS011;28218;53.342;-6.216;2023-06-04T02:23:12;8.60;;;5.20;;
42590;SDS011;28218;53.342;-6.216;2023-06-04T02:25:41;9.93;;;5.25;;
42590;SDS011;28218;53.342;-6.216;2023-06-04T02:28:12;10.23;;;5.72;;
42590;SDS011;28218;53.342;-6.216;2023-06-04T02:30:41;13.20;;;5.60;;
42590;SDS011;28218;53.342;-6.216;2023-06-04T02:33:09;9.70;;;4.65;;
42590;SDS011;28218;53.342;-6.216;2023-06-04T02:35:37;12.75;;;5.85;;
42590;SDS011;28218;53.342;-6.216;2023-06-04T02:38:06;8.20;;;4.57;;
42590;SDS011;28218;53.342;-6.216;2023-06-04T02:40:34;13.73;;;5.72;;
42590;SDS011;28218;53.342;-6.216;2023-06-04T02:43:03;8.93;;;4.82;;
42590;SDS011;28218;53.342;-6.216;2023-06-04T02:45:32;9.95;;;4.90;;
42590;SDS011;28218;53.342;-6.216;2023-06-04T02:48:00;13.88;;;5.07;;
42590;SDS011;28218;53.342;-6.216;2023-06-04T02:50:29;9.98;;;4.82;;
42590;SDS011;28218;53.342;-6.216;2023-06-04T02:52:57;12.88;;;5.20;;
42590;SDS011;28218;53.342;-6.216;2023-06-04T02:55:26;13.05;;;5.35;;
42590;SDS011;28218;53.342;-6.216;2023-06-04T02:57:54;10.82;;;5.60;;
42590;SDS011;28218;53.342;-6.216;2023-06-04T03:00:23;11.80;;;5.57;;
42590;SDS011;28218;53.342;-6.216;2023-06-04T03:02:53;9.25;;;4.75;;
42590;SDS011;28218;53.342;-6.216;2023-06-04T03:05:28;7.63;;;5.60;;
42590;SDS011;28218;53.342;-6.216;2023-06-04T03:08:00;14.60;;;5.03;;
42590;SDS011;28218;53.342;-6.216;2023-06-04T03:10:30;10.38;;;5.72;;
42590;SDS011;28218;53.342;-6.216;2023-06-04T03:12:59;15.10;;;5.97;;
42590;SDS011;28218;53.342;-6.216;2023-06-04T03:15:27;17.40;;;6.28;;
42590;SDS011;28218;53.342;-6.216;2023-06-04T03:17:57;11.40;;;5.50;;
42590;SDS011;28218;53.342;-6.216;2023-06-04T03:20:26;10.73;;;5.32;;
42590;SDS011;28218;53.342;-6.216;2023-06-04T03:22:54;13.43;;;7.05;;
42590;SDS011;28218;53.342;-6.216;2023-06-04T03:25:22;11.48;;;7.35;;
42590;SDS011;28218;53.342;-6.216;2023-06-04T03:27:50;10.10;;;5.15;;
42590;SDS011;28218;53.342;-6.216;2023-06-04T03:30:19;12.68;;;5.68;;
42590;SDS011;28218;53.342;-6.216;2023-06-04T03:32:47;14.43;;;6.03;;
42590;SDS011;28218;53.342;-6.216;2023-06-04T03:35:17;12.75;;;5.63;;
42590;SDS011;28218;53.342;-6.216;2023-06-04T03:37:45;12.45;;;6.20;;
42590;SDS011;28218;53.342;-6.216;2023-06-04T03:40:13;10.85;;;5.38;;
42590;SDS011;28218;53.342;-6.216;2023-06-04T03:42:42;10.57;;;6.18;;
42590;SDS011;28218;53.342;-6.216;2023-06-04T03:45:10;19.15;;;6.63;;
42590;SDS011;28218;53.342;-6.216;2023-06-04T03:47:38;9.77;;;5.72;;
42590;SDS011;28218;53.342;-6.216;2023-06-04T03:50:07;8.95;;;5.30;;
42590;SDS011;28218;53.342;-6.216;2023-06-04T03:52:37;8.52;;;5.47;;
42590;SDS011;28218;53.342;-6.216;2023-06-04T03:55:06;10.93;;;5.53;;
42590;SDS011;28218;53.342;-6.216;2023-06-04T03:57:35;10.60;;;5.95;;
42590;SDS011;28218;53.342;-6.216;2023-06-04T04:00:05;13.43;;;6.10;;
42590;SDS011;28218;53.342;-6.216;2023-06-04T04:02:35;8.65;;;4.55;;
42590;SDS011;28218;53.342;-6.216;2023-06-04T04:05:04;13.27;;;5.97;;
42590;SDS011;28218;53.342;-6.216;2023-06-04T04:07:33;8.18;;;6.15;;
42590;SDS011;28218;53.342;-6.216;2023-06-04T04:10:03;11.48;;;5.43;;
42590;SDS011;28218;53.342;-6.216;2023-06-04T04:12:32;10.57;;;6.22;;
42590;SDS011;28218;53.342;-6.216;2023-06-04T04:15:01;10.02;;;5.85;;
42590;SDS011;28218;53.342;-6.216;2023-06-04T04:17:29;8.95;;;5.63;;
42590;SDS011;28218;53.342;-6.216;2023-06-04T04:19:57;12.05;;;6.45;;
42590;SDS011;28218;53.342;-6.216;2023-06-04T04:22:25;11.77;;;5.75;;
42590;SDS011;28218;53.342;-6.216;2023-06-04T04:24:54;12.10;;;5.30;;
42590;SDS011;28218;53.342;-6.216;2023-06-04T04:27:23;11.93;;;6.18;;
42590;SDS011;28218;53.342;-6.216;2023-06-04T04:29:52;10.43;;;5.60;;
42590;SDS011;28218;53.342;-6.216;2023-06-04T04:32:21;10.48;;;6.13;;
42590;SDS011;28218;53.342;-6.216;2023-06-04T04:34:50;12.93;;;5.68;;
42590;SDS011;28218;53.342;-6.216;2023-06-04T04:37:20;10.95;;;4.63;;
42590;SDS011;28218;53.342;-6.216;2023-06-04T04:39:48;7.47;;;4.80;;
42590;SDS011;28218;53.342;-6.216;2023-06-04T04:42:18;14.90;;;5.78;;
42590;SDS011;28218;53.342;-6.216;2023-06-04T04:44:49;10.65;;;5.05;;
42590;SDS011;28218;53.342;-6.216;2023-06-04T04:47:17;14.35;;;5.32;;
42590;SDS011;28218;53.342;-6.216;2023-06-04T04:49:45;7.53;;;4.95;;
42590;SDS011;28218;53.342;-6.216;2023-06-04T04:52:16;8.55;;;4.13;;
42590;SDS011;28218;53.342;-6.216;2023-06-04T04:54:44;10.57;;;3.70;;
42590;SDS011;28218;53.342;-6.216;2023-06-04T04:57:12;6.70;;;3.80;;
42590;SDS011;28218;53.342;-6.216;2023-06-04T04:59:41;8.60;;;3.92;;
42590;SDS011;28218;53.342;-6.216;2023-06-04T05:02:10;7.05;;;3.25;;
42590;SDS011;28218;53.342;-6.216;2023-06-04T05:04:39;6.90;;;3.47;;
42590;SDS011;28218;53.342;-6.216;2023-06-04T05:07:07;9.32;;;3.88;;
42590;SDS011;28218;53.342;-6.216;2023-06-04T05:09:36;9.48;;;3.50;;
42590;SDS011;28218;53.342;-6.216;2023-06-04T05:12:04;11.35;;;4.03;;
42590;SDS011;28218;53.342;-6.216;2023-06-04T05:14:33;14.00;;;3.63;;
42590;SDS011;28218;53.342;-6.216;2023-06-04T05:17:03;6.95;;;3.05;;
42590;SDS011;28218;53.342;-6.216;2023-06-04T05:19:34;7.00;;;4.53;;
42590;SDS011;28218;53.342;-6.216;2023-06-04T05:22:03;7.15;;;3.08;;
42590;SDS011;28218;53.342;-6.216;2023-06-04T05:24:32;5.95;;;3.28;;
42590;SDS011;28218;53.342;-6.216;2023-06-04T05:27:00;9.93;;;3.67;;
42590;SDS011;28218;53.342;-6.216;2023-06-04T05:29:30;6.93;;;3.03;;
42590;SDS011;28218;53.342;-6.216;2023-06-04T05:31:58;10.98;;;3.30;;
42590;SDS011;28218;53.342;-6.216;2023-06-04T05:34:27;8.50;;;4.25;;
42590;SDS011;28218;53.342;-6.216;2023-06-04T05:36:57;10.02;;;4.38;;
42590;SDS011;28218;53.342;-6.216;2023-06-04T05:39:25;8.93;;;3.78;;
42590;SDS011;28218;53.342;-6.216;2023-06-04T05:41:54;7.88;;;3.30;;
42590;SDS011;28218;53.342;-6.216;2023-06-04T05:44:22;4.63;;;2.42;;
42590;SDS011;28218;53.342;-6.216;2023-06-04T05:46:50;5.78;;;3.03;;
42590;SDS011;28218;53.342;-6.216;2023-06-04T05:49:19;9.05;;;3.00;;
42590;SDS011;28218;53.342;-6.216;2023-06-04T05:51:51;7.70;;;3.30;;
42590;SDS011;28218;53.342;-6.216;2023-06-04T05:54:21;6.35;;;3.10;;
42590;SDS011;28218;53.342;-6.216;2023-06-04T05:56:49;6.90;;;2.88;;
42590;SDS011;28218;53.342;-6.216;2023-06-04T05:59:17;9.95;;;3.28;;
42590;SDS011;28218;53.342;-6.216;2023-06-04T06:01:46;4.72;;;2.78;;
42590;SDS011;28218;53.342;-6.216;2023-06-04T06:04:14;10.43;;;2.90;;
42590;SDS011;28218;53.342;-6.216;2023-06-04T06:06:42;5.43;;;2.67;;
42590;SDS011;28218;53.342;-6.216;2023-06-04T06:09:14;6.88;;;2.90;;
42590;SDS011;28218;53.342;-6.216;2023-06-04T06:11:44;7.03;;;3.17;;
42590;SDS011;28218;53.342;-6.216;2023-06-04T06:14:12;7.30;;;3.13;;
42590;SDS011;28218;53.342;-6.216;2023-06-04T06:16:41;7.03;;;3.45;;
42590;SDS011;28218;53.342;-6.216;2023-06-04T06:19:09;5.82;;;3.00;;
42590;SDS011;28218;53.342;-6.216;2023-06-04T06:21:38;6.90;;;3.13;;
42590;SDS011;28218;53.342;-6.216;2023-06-04T06:24:07;9.05;;;3.20;;
42590;SDS011;28218;53.342;-6.216;2023-06-04T06:26:35;7.53;;;3.08;;
42590;SDS011;28218;53.342;-6.216;2023-06-04T06:29:05;7.45;;;3.15;;
42590;SDS011;28218;53.342;-6.216;2023-06-04T06:31:33;7.07;;;3.22;;
42590;SDS011;28218;53.342;-6.216;2023-06-04T06:34:01;5.20;;;3.40;;
42590;SDS011;28218;53.342;-6.216;2023-06-04T06:36:30;9.60;;;3.33;;
42590;SDS011;28218;53.342;-6.216;2023-06-04T06:38:59;8.35;;;3.28;;
42590;SDS011;28218;53.342;-6.216;2023-06-04T06:41:27;9.50;;;3.10;;
42590;SDS011;28218;53.342;-6.216;2023-06-04T06:43:57;8.38;;;2.92;;
42590;SDS011;28218;53.342;-6.216;2023-06-04T06:46:27;10.80;;;3.17;;
42590;SDS011;28218;53.342;-6.216;2023-06-04T06:48:55;13.95;;;2.90;;
42590;SDS011;28218;53.342;-6.216;2023-06-04T06:51:23;6.55;;;2.97;;
42590;SDS011;28218;53.342;-6.216;2023-06-04T06:53:51;5.95;;;2.45;;
42590;SDS011;28218;53.342;-6.216;2023-06-04T06:56:20;6.80;;;2.95;;
42590;SDS011;28218;53.342;-6.216;2023-06-04T06:58:48;10.65;;;5.20;;
42590;SDS011;28218;53.342;-6.216;2023-06-04T07:01:17;10.95;;;3.70;;
42590;SDS011;28218;53.342;-6.216;2023-06-04T07:03:47;6.20;;;3.13;;
42590;SDS011;28218;53.342;-6.216;2023-06-04T07:06:15;17.27;;;4.22;;
42590;SDS011;28218;53.342;-6.216;2023-06-04T07:08:44;11.60;;;3.42;;
42590;SDS011;28218;53.342;-6.216;2023-06-04T07:11:14;12.85;;;3.85;;
42590;SDS011;28218;53.342;-6.216;2023-06-04T07:13:44;7.43;;;3.15;;
42590;SDS011;28218;53.342;-6.216;2023-06-04T07:16:12;5.63;;;2.85;;
42590;SDS011;28218;53.342;-6.216;2023-06-04T07:18:40;5.72;;;2.55;;
42590;SDS011;28218;53.342;-6.216;2023-06-04T07:21:10;6.57;;;3.00;;
42590;SDS011;28218;53.342;-6.216;2023-06-04T07:23:38;5.20;;;2.78;;
42590;SDS011;28218;53.342;-6.216;2023-06-04T07:26:07;5.90;;;3.38;;
42590;SDS011;28218;53.342;-6.216;2023-06-04T07:28:36;9.00;;;3.45;;
42590;SDS011;28218;53.342;-6.216;2023-06-04T07:31:04;6.95;;;3.42;;
42590;SDS011;28218;53.342;-6.216;2023-06-04T07:33:32;5.38;;;2.83;;
42590;SDS011;28218;53.342;-6.216;2023-06-04T07:36:12;8.15;;;3.10;;
42590;SDS011;28218;53.342;-6.216;2023-06-04T07:38:40;6.88;;;3.47;;
42590;SDS011;28218;53.342;-6.216;2023-06-04T07:41:08;7.65;;;2.75;;
42590;SDS011;28218;53.342;-6.216;2023-06-04T07:43:37;10.52;;;2.85;;
42590;SDS011;28218;53.342;-6.216;2023-06-04T07:46:05;9.07;;;3.00;;
42590;SDS011;28218;53.342;-6.216;2023-06-04T07:48:34;6.00;;;2.45;;
42590;SDS011;28218;53.342;-6.216;2023-06-04T07:51:02;7.18;;;2.58;;
42590;SDS011;28218;53.342;-6.216;2023-06-04T07:53:33;9.13;;;2.42;;
42590;SDS011;28218;53.342;-6.216;2023-06-04T07:56:02;7.80;;;3.40;;
42590;SDS011;28218;53.342;-6.216;2023-06-04T07:58:30;9.98;;;3.15;;
42590;SDS011;28218;53.342;-6.216;2023-06-04T08:00:58;9.68;;;3.53;;
42590;SDS011;28218;53.342;-6.216;2023-06-04T08:03:27;7.82;;;3.40;;
42590;SDS011;28218;53.342;-6.216;2023-06-04T08:05:55;7.55;;;2.70;;
42590;SDS011;28218;53.342;-6.216;2023-06-04T08:08:23;9.75;;;2.85;;
42590;SDS011;28218;53.342;-6.216;2023-06-04T08:10:53;8.23;;;3.00;;
42590;SDS011;28218;53.342;-6.216;2023-06-04T08:13:21;8.45;;;4.88;;
42590;SDS011;28218;53.342;-6.216;2023-06-04T08:15:49;11.25;;;4.22;;
42590;SDS011;28218;53.342;-6.216;2023-06-04T08:18:18;5.88;;;2.85;;
42590;SDS011;28218;53.342;-6.216;2023-06-04T08:20:47;10.13;;;3.13;;
42590;SDS011;28218;53.342;-6.216;2023-06-04T08:23:15;7.43;;;3.03;;
42590;SDS011;28218;53.342;-6.216;2023-06-04T08:25:44;6.07;;;2.78;;
42590;SDS011;28218;53.342;-6.216;2023-06-04T08:28:14;8.48;;;3.10;;
42590;SDS011;28218;53.342;-6.216;2023-06-04T08:30:43;7.70;;;4.13;;
42590;SDS011;28218;53.342;-6.216;2023-06-04T08:33:12;9.20;;;3.28;;
42590;SDS011;28218;53.342;-6.216;2023-06-04T08:35:40;13.85;;;3.03;;
42590;SDS011;28218;53.342;-6.216;2023-06-04T08:38:08;19.40;;;2.58;;
42590;SDS011;28218;53.342;-6.216;2023-06-04T08:40:37;7.53;;;3.42;;
42590;SDS011;28218;53.342;-6.216;2023-06-04T08:43:05;7.25;;;2.63;;
42590;SDS011;28218;53.342;-6.216;2023-06-04T08:45:36;3.83;;;2.70;;
42590;SDS011;28218;53.342;-6.216;2023-06-04T08:48:08;7.03;;;2.60;;
42590;SDS011;28218;53.342;-6.216;2023-06-04T08:50:38;9.57;;;2.90;;
42590;SDS011;28218;53.342;-6.216;2023-06-04T08:53:11;6.25;;;3.10;;
42590;SDS011;28218;53.342;-6.216;2023-06-04T08:55:41;6.55;;;2.45;;
42590;SDS011;28218;53.342;-6.216;2023-06-04T08:58:10;9.10;;;2.63;;
42590;SDS011;28218;53.342;-6.216;2023-06-04T09:00:41;8.48;;;2.78;;
42590;SDS011;28218;53.342;-6.216;2023-06-04T09:03:09;6.13;;;2.53;;
42590;SDS011;28218;53.342;-6.216;2023-06-04T09:05:38;8.05;;;2.35;;
42590;SDS011;28218;53.342;-6.216;2023-06-04T09:08:12;5.15;;;1.98;;
42590;SDS011;28218;53.342;-6.216;2023-06-04T09:10:41;5.57;;;2.35;;
42590;SDS011;28218;53.342;-6.216;2023-06-04T09:13:12;6.55;;;1.67;;
42590;SDS011;28218;53.342;-6.216;2023-06-04T09:15:44;6.75;;;2.38;;
42590;SDS011;28218;53.342;-6.216;2023-06-04T09:18:12;3.97;;;1.90;;
42590;SDS011;28218;53.342;-6.216;2023-06-04T09:20:41;4.05;;;2.50;;
42590;SDS011;28218;53.342;-6.216;2023-06-04T09:23:12;9.88;;;2.70;;
42590;SDS011;28218;53.342;-6.216;2023-06-04T09:25:42;8.73;;;2.97;;
42590;SDS011;28218;53.342;-6.216;2023-06-04T09:28:11;12.55;;;2.22;;
42590;SDS011;28218;53.342;-6.216;2023-06-04T09:30:39;7.15;;;2.42;;
42590;SDS011;28218;53.342;-6.216;2023-06-04T09:33:20;7.88;;;1.92;;
42590;SDS011;28218;53.342;-6.216;2023-06-04T09:35:53;4.60;;;2.47;;
42590;SDS011;28218;53.342;-6.216;2023-06-04T09:38:22;8.27;;;3.45;;
42590;SDS011;28218;53.342;-6.216;2023-06-04T09:40:50;7.15;;;3.78;;
42590;SDS011;28218;53.342;-6.216;2023-06-04T09:43:22;5.78;;;2.65;;
42590;SDS011;28218;53.342;-6.216;2023-06-04T09:45:52;5.18;;;2.22;;
42590;SDS011;28218;53.342;-6.216;2023-06-04T09:48:20;7.00;;;2.72;;
42590;SDS011;28218;53.342;-6.216;2023-06-04T09:50:49;9.02;;;2.10;;
42590;SDS011;28218;53.342;-6.216;2023-06-04T09:53:19;4.20;;;2.35;;
42590;SDS011;28218;53.342;-6.216;2023-06-04T09:55:55;6.45;;;1.92;;
42590;SDS011;28218;53.342;-6.216;2023-06-04T09:58:24;7.57;;;2.28;;
42590;SDS011;28218;53.342;-6.216;2023-06-04T10:00:55;4.50;;;2.10;;
42590;SDS011;28218;53.342;-6.216;2023-06-04T10:03:25;7.72;;;2.25;;
42590;SDS011;28218;53.342;-6.216;2023-06-04T10:05:57;5.00;;;2.20;;
42590;SDS011;28218;53.342;-6.216;2023-06-04T10:08:29;3.17;;;2.25;;
42590;SDS011;28218;53.342;-6.216;2023-06-04T10:10:59;7.57;;;2.60;;
42590;SDS011;28218;53.342;-6.216;2023-06-04T10:13:29;3.47;;;1.83;;
42590;SDS011;28218;53.342;-6.216;2023-06-04T10:16:04;6.03;;;2.20;;
42590;SDS011;28218;53.342;-6.216;2023-06-04T10:18:47;6.45;;;2.55;;
42590;SDS011;28218;53.342;-6.216;2023-06-04T10:21:16;6.97;;;2.50;;
42590;SDS011;28218;53.342;-6.216;2023-06-04T10:23:45;6.88;;;2.00;;
42590;SDS011;28218;53.342;-6.216;2023-06-04T10:26:14;4.85;;;1.98;;
42590;SDS011;28218;53.342;-6.216;2023-06-04T10:28:43;5.07;;;2.15;;
42590;SDS011;28218;53.342;-6.216;2023-06-04T10:31:15;8.00;;;2.00;;
42590;SDS011;28218;53.342;-6.216;2023-06-04T10:33:43;6.07;;;1.95;;
42590;SDS011;28218;53.342;-6.216;2023-06-04T10:36:18;7.03;;;2.13;;
42590;SDS011;28218;53.342;-6.216;2023-06-04T10:38:47;3.45;;;1.92;;
42590;SDS011;28218;53.342;-6.216;2023-06-04T10:41:17;6.25;;;2.65;;
42590;SDS011;28218;53.342;-6.216;2023-06-04T10:43:47;5.88;;;2.10;;
42590;SDS011;28218;53.342;-6.216;2023-06-04T10:46:19;3.72;;;2.20;;
42590;SDS011;28218;53.342;-6.216;2023-06-04T10:48:48;6.40;;;1.85;;
42590;SDS011;28218;53.342;-6.216;2023-06-04T10:51:28;5.43;;;2.33;;
42590;SDS011;28218;53.342;-6.216;2023-06-04T10:53:57;4.50;;;1.88;;
42590;SDS011;28218;53.342;-6.216;2023-06-04T10:56:27;9.27;;;2.22;;
42590;SDS011;28218;53.342;-6.216;2023-06-04T10:58:56;5.38;;;1.70;;
42590;SDS011;28218;53.342;-6.216;2023-06-04T11:01:26;5.45;;;2.00;;
42590;SDS011;28218;53.342;-6.216;2023-06-04T11:03:55;3.65;;;2.58;;
42590;SDS011;28218;53.342;-6.216;2023-06-04T11:06:23;4.47;;;2.88;;
42590;SDS011;28218;53.342;-6.216;2023-06-04T11:09:01;7.30;;;2.85;;
42590;SDS011;28218;53.342;-6.216;2023-06-04T11:11:30;5.75;;;1.98;;
42590;SDS011;28218;53.342;-6.216;2023-06-04T11:14:06;2.67;;;1.67;;
42590;SDS011;28218;53.342;-6.216;2023-06-04T11:16:36;5.88;;;2.53;;
42590;SDS011;28218;53.342;-6.216;2023-06-04T11:19:05;7.57;;;2.15;;
42590;SDS011;28218;53.342;-6.216;2023-06-04T11:21:33;6.20;;;2.65;;
42590;SDS011;28218;53.342;-6.216;2023-06-04T11:24:03;4.28;;;2.00;;
42590;SDS011;28218;53.342;-6.216;2023-06-04T11:26:32;7.38;;;2.33;;
42590;SDS011;28218;53.342;-6.216;2023-06-04T11:29:06;7.25;;;1.50;;
42590;SDS011;28218;53.342;-6.216;2023-06-04T11:31:42;4.95;;;1.90;;
42590;SDS011;28218;53.342;-6.216;2023-06-04T11:34:11;7.70;;;1.90;;
42590;SDS011;28218;53.342;-6.216;2023-06-04T11:36:50;7.63;;;2.30;;
42590;SDS011;28218;53.342;-6.216;2023-06-04T11:39:19;4.20;;;1.95;;
42590;SDS011;28218;53.342;-6.216;2023-06-04T11:41:48;4.70;;;2.00;;
42590;SDS011;28218;53.342;-6.216;2023-06-04T11:44:18;7.45;;;2.13;;
42590;SDS011;28218;53.342;-6.216;2023-06-04T11:46:48;3.13;;;1.75;;
42590;SDS011;28218;53.342;-6.216;2023-06-04T11:49:19;3.22;;;1.88;;
42590;SDS011;28218;53.342;-6.216;2023-06-04T11:51:48;7.32;;;3.42;;
42590;SDS011;28218;53.342;-6.216;2023-06-04T11:54:18;9.57;;;2.60;;
42590;SDS011;28218;53.342;-6.216;2023-06-04T11:56:48;4.32;;;2.40;;
42590;SDS011;28218;53.342;-6.216;2023-06-04T11:59:18;3.30;;;2.20;;
42590;SDS011;28218;53.342;-6.216;2023-06-04T12:01:48;5.93;;;1.95;;
42590;SDS011;28218;53.342;-6.216;2023-06-04T12:04:18;4.07;;;1.88;;
42590;SDS011;28218;53.342;-6.216;2023-06-04T12:06:50;3.35;;;1.63;;
42590;SDS011;28218;53.342;-6.216;2023-06-04T12:09:20;5.15;;;1.92;;
42590;SDS011;28218;53.342;-6.216;2023-06-04T12:11:49;3.67;;;1.92;;
42590;SDS011;28218;53.342;-6.216;2023-06-04T12:14:17;3.88;;;1.88;;
42590;SDS011;28218;53.342;-6.216;2023-06-04T12:16:56;5.95;;;2.53;;
42590;SDS011;28218;53.342;-6.216;2023-06-04T12:19:25;7.03;;;2.72;;
42590;SDS011;28218;53.342;-6.216;2023-06-04T12:22:01;7.13;;;2.40;;
42590;SDS011;28218;53.342;-6.216;2023-06-04T12:24:30;5.97;;;2.40;;
42590;SDS011;28218;53.342;-6.216;2023-06-04T12:27:01;2.42;;;1.63;;
42590;SDS011;28218;53.342;-6.216;2023-06-04T12:29:30;3.97;;;2.45;;
42590;SDS011;28218;53.342;-6.216;2023-06-04T12:32:04;11.18;;;2.75;;
42590;SDS011;28218;53.342;-6.216;2023-06-04T12:34:38;6.45;;;2.45;;
42590;SDS011;28218;53.342;-6.216;2023-06-04T12:37:07;6.88;;;2.55;;
42590;SDS011;28218;53.342;-6.216;2023-06-04T12:39:36;6.60;;;2.95;;
42590;SDS011;28218;53.342;-6.216;2023-06-04T12:42:05;7.07;;;2.45;;
42590;SDS011;28218;53.342;-6.216;2023-06-04T12:44:35;4.03;;;2.70;;
42590;SDS011;28218;53.342;-6.216;2023-06-04T12:47:05;10.68;;;3.20;;
42590;SDS011;28218;53.342;-6.216;2023-06-04T12:49:34;8.70;;;2.83;;
42590;SDS011;28218;53.342;-6.216;2023-06-04T12:52:02;4.57;;;2.60;;
42590;SDS011;28218;53.342;-6.216;2023-06-04T12:54:31;6.20;;;3.05;;
42590;SDS011;28218;53.342;-6.216;2023-06-04T12:57:00;5.10;;;2.33;;
42590;SDS011;28218;53.342;-6.216;2023-06-04T12:59:29;8.00;;;3.00;;
42590;SDS011;28218;53.342;-6.216;2023-06-04T13:01:57;8.10;;;2.72;;
42590;SDS011;28218;53.342;-6.216;2023-06-04T13:04:27;3.65;;;2.50;;
42590;SDS011;28218;53.342;-6.216;2023-06-04T13:06:55;7.38;;;3.17;;
42590;SDS011;28218;53.342;-6.216;2023-06-04T13:09:26;10.80;;;2.77;;
42590;SDS011;28218;53.342;-6.216;2023-06-04T13:11:55;5.35;;;2.58;;
42590;SDS011;28218;53.342;-6.216;2023-06-04T13:14:23;5.80;;;2.90;;
42590;SDS011;28218;53.342;-6.216;2023-06-04T13:16:52;7.88;;;2.53;;
42590;SDS011;28218;53.342;-6.216;2023-06-04T13:19:20;7.70;;;2.30;;
42590;SDS011;28218;53.342;-6.216;2023-06-04T13:21:50;4.07;;;2.33;;
42590;SDS011;28218;53.342;-6.216;2023-06-04T13:24:18;5.88;;;2.47;;
42590;SDS011;28218;53.342;-6.216;2023-06-04T13:26:47;6.13;;;2.38;;
42590;SDS011;28218;53.342;-6.216;2023-06-04T13:29:15;6.65;;;2.78;;
42590;SDS011;28218;53.342;-6.216;2023-06-04T13:31:49;7.60;;;3.00;;
42590;SDS011;28218;53.342;-6.216;2023-06-04T13:34:19;2.53;;;2.20;;
42590;SDS011;28218;53.342;-6.216;2023-06-04T13:36:54;4.63;;;2.70;;
42590;SDS011;28218;53.342;-6.216;2023-06-04T13:39:23;7.22;;;2.22;;
42590;SDS011;28218;53.342;-6.216;2023-06-04T13:41:51;5.13;;;2.35;;
42590;SDS011;28218;53.342;-6.216;2023-06-04T13:44:21;6.28;;;2.30;;
42590;SDS011;28218;53.342;-6.216;2023-06-04T13:46:52;3.42;;;2.00;;
42590;SDS011;28218;53.342;-6.216;2023-06-04T13:49:21;5.05;;;2.15;;
42590;SDS011;28218;53.342;-6.216;2023-06-04T13:51:49;5.07;;;2.25;;
42590;SDS011;28218;53.342;-6.216;2023-06-04T13:54:19;3.35;;;2.10;;
42590;SDS011;28218;53.342;-6.216;2023-06-04T13:56:47;3.30;;;2.03;;
42590;SDS011;28218;53.342;-6.216;2023-06-04T13:59:16;9.95;;;5.18;;
42590;SDS011;28218;53.342;-6.216;2023-06-04T14:01:44;8.43;;;3.90;;
42590;SDS011;28218;53.342;-6.216;2023-06-04T14:04:13;7.18;;;2.90;;
42590;SDS011;28218;53.342;-6.216;2023-06-04T14:06:41;4.22;;;2.42;;
42590;SDS011;28218;53.342;-6.216;2023-06-04T14:09:09;5.15;;;2.72;;
42590;SDS011;28218;53.342;-6.216;2023-06-04T14:11:40;9.35;;;4.97;;
42590;SDS011;28218;53.342;-6.216;2023-06-04T14:14:08;6.68;;;2.40;;
42590;SDS011;28218;53.342;-6.216;2023-06-04T14:16:40;3.08;;;2.33;;
42590;SDS011;28218;53.342;-6.216;2023-06-04T14:19:08;5.28;;;2.50;;
42590;SDS011;28218;53.342;-6.216;2023-06-04T14:21:36;4.25;;;2.25;;
42590;SDS011;28218;53.342;-6.216;2023-06-04T14:24:05;3.60;;;2.03;;
42590;SDS011;28218;53.342;-6.216;2023-06-04T14:26:34;4.20;;;2.28;;
42590;SDS011;28218;53.342;-6.216;2023-06-04T14:29:04;3.40;;;2.05;;
42590;SDS011;28218;53.342;-6.216;2023-06-04T14:31:32;6.78;;;2.30;;
42590;SDS011;28218;53.342;-6.216;2023-06-04T14:34:01;3.90;;;2.00;;
42590;SDS011;28218;53.342;-6.216;2023-06-04T14:36:29;3.00;;;1.75;;
42590;SDS011;28218;53.342;-6.216;2023-06-04T14:38:58;7.93;;;1.85;;
42590;SDS011;28218;53.342;-6.216;2023-06-04T14:41:26;3.33;;;2.10;;
42590;SDS011;28218;53.342;-6.216;2023-06-04T14:43:55;7.15;;;2.13;;